sensor_id;sensor_type;location;lat;lon;timestamp;P1;durP1;ratioP1;P2;durP2;ratioP2
7051;SDS011;3567;52.444;13.556;2023-06-22T00:00:51;20.92;;;18.85;;
7051;SDS011;3567;52.444;13.556;2023-06-22T00:03:17;22.60;;;20.52;;
7051;SDS011;3567;52.444;13.556;2023-06-22T00:05:44;22.65;;;20.65;;
7051;SDS011;3567;52.444;13.556;2023-06-22T00:08:10;23.40;;;21.23;;
7051;SDS011;3567;52.444;13.556;2023-06-22T00:10:35;22.33;;;20.13;;
7051;SDS011;3567;52.444;13.556;2023-06-22T00:13:01;20.90;;;19.00;;
7051;SDS011;3567;52.444;13.556;2023-06-22T00:15:26;20.30;;;18.50;;
7051;SDS011;3567;52.444;13.556;2023-06-22T00:17:52;23.13;;;21.10;;
7051;SDS011;3567;52.444;13.556;2023-06-22T00:20:17;21.50;;;19.50;;
7051;SDS011;3567;52.444;13.556;2023-06-22T00:22:43;22.33;;;20.23;;
7051;SDS011;3567;52.444;13.556;2023-06-22T00:25:09;21.48;;;19.38;;
7051;SDS011;3567;52.444;13.556;2023-06-22T00:27:35;19.88;;;18.20;;
7051;SDS011;3567;52.444;13.556;2023-06-22T00:30:00;23.42;;;21.17;;
7051;SDS011;3567;52.444;13.556;2023-06-22T00:32:26;22.50;;;20.50;;
7051;SDS011;3567;52.444;13.556;2023-06-22T00:34:51;21.25;;;19.25;;
7051;SDS011;3567;52.444;13.556;2023-06-22T00:37:17;20.33;;;18.42;;
7051;SDS011;3567;52.444;13.556;2023-06-22T00:39:43;21.92;;;19.92;;
7051;SDS011;3567;52.444;13.556;2023-06-22T00:42:08;21.77;;;19.70;;
7051;SDS011;3567;52.444;13.556;2023-06-22T00:44:34;21.83;;;19.73;;
7051;SDS011;3567;52.444;13.556;2023-06-22T00:47:00;23.65;;;21.15;;
7051;SDS011;3567;52.444;13.556;2023-06-22T00:49:26;22.42;;;20.35;;
7051;SDS011;3567;52.444;13.556;2023-06-22T00:51:52;21.02;;;19.23;;
7051;SDS011;3567;52.444;13.556;2023-06-22T00:54:17;22.23;;;20.23;;
7051;SDS011;3567;52.444;13.556;2023-06-22T00:56:49;21.08;;;19.17;;
7051;SDS011;3567;52.444;13.556;2023-06-22T00:59:23;20.95;;;18.85;;
7051;SDS011;3567;52.444;13.556;2023-06-22T01:01:51;20.15;;;18.25;;
7051;SDS011;3567;52.444;13.556;2023-06-22T01:04:16;19.13;;;17.42;;
7051;SDS011;3567;52.444;13.556;2023-06-22T01:06:58;20.23;;;18.23;;
7051;SDS011;3567;52.444;13.556;2023-06-22T01:09:46;20.58;;;18.65;;
7051;SDS011;3567;52.444;13.556;2023-06-22T01:12:20;19.67;;;17.83;;
7051;SDS011;3567;52.444;13.556;2023-06-22T01:14:57;20.75;;;18.83;;
7051;SDS011;3567;52.444;13.556;2023-06-22T01:17:26;20.38;;;18.75;;
7051;SDS011;3567;52.444;13.556;2023-06-22T01:19:54;20.23;;;18.42;;
7051;SDS011;3567;52.444;13.556;2023-06-22T01:22:22;21.20;;;18.95;;
7051;SDS011;3567;52.444;13.556;2023-06-22T01:27:59;18.52;;;16.85;;
7051;SDS011;3567;52.444;13.556;2023-06-22T01:30:27;19.48;;;17.88;;
7051;SDS011;3567;52.444;13.556;2023-06-22T01:32:56;24.55;;;19.73;;
7051;SDS011;3567;52.444;13.556;2023-06-22T01:35:23;20.63;;;18.83;;
7051;SDS011;3567;52.444;13.556;2023-06-22T01:37:50;19.30;;;17.70;;
7051;SDS011;3567;52.444;13.556;2023-06-22T01:40:15;22.73;;;20.55;;
7051;SDS011;3567;52.444;13.556;2023-06-22T01:42:42;20.75;;;18.85;;
7051;SDS011;3567;52.444;13.556;2023-06-22T01:45:08;18.73;;;17.08;;
7051;SDS011;3567;52.444;13.556;2023-06-22T01:47:35;20.58;;;18.77;;
7051;SDS011;3567;52.444;13.556;2023-06-22T01:50:00;19.83;;;17.90;;
7051;SDS011;3567;52.444;13.556;2023-06-22T01:52:26;22.33;;;20.23;;
7051;SDS011;3567;52.444;13.556;2023-06-22T01:54:51;19.25;;;17.55;;
7051;SDS011;3567;52.444;13.556;2023-06-22T01:57:17;21.33;;;19.27;;
7051;SDS011;3567;52.444;13.556;2023-06-22T02:02:30;20.70;;;18.95;;
7051;SDS011;3567;52.444;13.556;2023-06-22T02:05:02;20.38;;;18.55;;
7051;SDS011;3567;52.444;13.556;2023-06-22T02:07:32;21.30;;;19.20;;
7051;SDS011;3567;52.444;13.556;2023-06-22T02:10:04;21.25;;;19.02;;
7051;SDS011;3567;52.444;13.556;2023-06-22T02:12:32;22.65;;;18.40;;
7051;SDS011;3567;52.444;13.556;2023-06-22T02:14:59;19.73;;;17.92;;
7051;SDS011;3567;52.444;13.556;2023-06-22T02:17:26;20.02;;;18.20;;
7051;SDS011;3567;52.444;13.556;2023-06-22T02:19:51;19.58;;;17.77;;
7051;SDS011;3567;52.444;13.556;2023-06-22T02:22:17;20.73;;;18.83;;
7051;SDS011;3567;52.444;13.556;2023-06-22T02:24:42;21.20;;;19.05;;
7051;SDS011;3567;52.444;13.556;2023-06-22T02:27:08;21.88;;;19.98;;
7051;SDS011;3567;52.444;13.556;2023-06-22T02:29:33;19.58;;;17.40;;
7051;SDS011;3567;52.444;13.556;2023-06-22T02:31:59;19.05;;;17.38;;
7051;SDS011;3567;52.444;13.556;2023-06-22T02:34:24;20.02;;;18.27;;
7051;SDS011;3567;52.444;13.556;2023-06-22T02:36:50;20.95;;;19.08;;
7051;SDS011;3567;52.444;13.556;2023-06-22T02:39:22;17.05;;;15.63;;
7051;SDS011;3567;52.444;13.556;2023-06-22T02:41:49;19.80;;;17.90;;
7051;SDS011;3567;52.444;13.556;2023-06-22T02:44:15;20.55;;;18.52;;
7051;SDS011;3567;52.444;13.556;2023-06-22T02:46:41;20.90;;;18.85;;
7051;SDS011;3567;52.444;13.556;2023-06-22T02:49:06;20.38;;;18.58;;
7051;SDS011;3567;52.444;13.556;2023-06-22T02:51:33;19.83;;;18.10;;
7051;SDS011;3567;52.444;13.556;2023-06-22T02:54:01;22.05;;;20.02;;
7051;SDS011;3567;52.444;13.556;2023-06-22T02:56:28;22.15;;;19.98;;
7051;SDS011;3567;52.444;13.556;2023-06-22T02:58:55;23.75;;;21.35;;
7051;SDS011;3567;52.444;13.556;2023-06-22T03:01:25;21.75;;;19.75;;
7051;SDS011;3567;52.444;13.556;2023-06-22T03:03:52;22.00;;;20.10;;
7051;SDS011;3567;52.444;13.556;2023-06-22T03:06:18;20.20;;;18.50;;
7051;SDS011;3567;52.444;13.556;2023-06-22T03:08:47;20.63;;;18.77;;
7051;SDS011;3567;52.444;13.556;2023-06-22T03:11:13;21.08;;;19.10;;
7051;SDS011;3567;52.444;13.556;2023-06-22T03:13:38;22.60;;;20.50;;
7051;SDS011;3567;52.444;13.556;2023-06-22T03:16:03;24.45;;;22.10;;
7051;SDS011;3567;52.444;13.556;2023-06-22T03:18:29;22.48;;;20.45;;
7051;SDS011;3567;52.444;13.556;2023-06-22T03:20:54;22.45;;;20.30;;
7051;SDS011;3567;52.444;13.556;2023-06-22T03:23:20;23.05;;;20.83;;
7051;SDS011;3567;52.444;13.556;2023-06-22T03:25:45;23.73;;;21.17;;
7051;SDS011;3567;52.444;13.556;2023-06-22T03:28:10;22.35;;;20.25;;
7051;SDS011;3567;52.444;13.556;2023-06-22T03:30:36;24.20;;;21.92;;
7051;SDS011;3567;52.444;13.556;2023-06-22T03:33:01;25.60;;;23.27;;
7051;SDS011;3567;52.444;13.556;2023-06-22T03:35:26;24.20;;;21.90;;
7051;SDS011;3567;52.444;13.556;2023-06-22T03:37:52;24.55;;;22.08;;
7051;SDS011;3567;52.444;13.556;2023-06-22T03:40:17;21.58;;;19.63;;
7051;SDS011;3567;52.444;13.556;2023-06-22T03:42:43;24.20;;;21.88;;
7051;SDS011;3567;52.444;13.556;2023-06-22T03:45:08;23.98;;;21.75;;
7051;SDS011;3567;52.444;13.556;2023-06-22T03:47:34;24.80;;;22.60;;
7051;SDS011;3567;52.444;13.556;2023-06-22T03:49:59;23.17;;;21.02;;
7051;SDS011;3567;52.444;13.556;2023-06-22T03:52:25;24.02;;;21.63;;
7051;SDS011;3567;52.444;13.556;2023-06-22T03:54:50;23.48;;;21.25;;
7051;SDS011;3567;52.444;13.556;2023-06-22T03:57:16;24.65;;;22.45;;
7051;SDS011;3567;52.444;13.556;2023-06-22T03:59:41;23.83;;;21.70;;
7051;SDS011;3567;52.444;13.556;2023-06-22T04:02:06;22.45;;;20.50;;
7051;SDS011;3567;52.444;13.556;2023-06-22T04:04:32;24.35;;;21.95;;
7051;SDS011;3567;52.444;13.556;2023-06-22T04:06:58;26.02;;;23.08;;
7051;SDS011;3567;52.444;13.556;2023-06-22T04:09:24;24.77;;;22.67;;
7051;SDS011;3567;52.444;13.556;2023-06-22T04:11:52;23.13;;;20.98;;
7051;SDS011;3567;52.444;13.556;2023-06-22T04:14:17;24.13;;;22.05;;
7051;SDS011;3567;52.444;13.556;2023-06-22T04:16:42;21.30;;;19.40;;
7051;SDS011;3567;52.444;13.556;2023-06-22T04:19:08;22.48;;;20.30;;
7051;SDS011;3567;52.444;13.556;2023-06-22T04:21:39;22.88;;;20.13;;
7051;SDS011;3567;52.444;13.556;2023-06-22T04:24:06;19.73;;;17.85;;
7051;SDS011;3567;52.444;13.556;2023-06-22T04:26:32;22.45;;;20.38;;
7051;SDS011;3567;52.444;13.556;2023-06-22T04:29:03;20.02;;;18.02;;
7051;SDS011;3567;52.444;13.556;2023-06-22T04:31:31;20.20;;;18.30;;
7051;SDS011;3567;52.444;13.556;2023-06-22T04:34:02;18.95;;;17.05;;
7051;SDS011;3567;52.444;13.556;2023-06-22T04:36:38;18.08;;;16.38;;
7051;SDS011;3567;52.444;13.556;2023-06-22T04:39:09;18.55;;;16.90;;
7051;SDS011;3567;52.444;13.556;2023-06-22T04:41:37;18.48;;;16.95;;
7051;SDS011;3567;52.444;13.556;2023-06-22T04:44:14;19.20;;;17.15;;
7051;SDS011;3567;52.444;13.556;2023-06-22T04:46:50;16.65;;;15.05;;
7051;SDS011;3567;52.444;13.556;2023-06-22T04:49:25;15.10;;;13.70;;
7051;SDS011;3567;52.444;13.556;2023-06-22T04:51:59;15.85;;;14.20;;
7051;SDS011;3567;52.444;13.556;2023-06-22T04:54:29;16.05;;;14.50;;
7051;SDS011;3567;52.444;13.556;2023-06-22T04:56:54;14.10;;;12.85;;
7051;SDS011;3567;52.444;13.556;2023-06-22T04:59:23;14.63;;;13.02;;
7051;SDS011;3567;52.444;13.556;2023-06-22T05:01:56;13.98;;;12.68;;
7051;SDS011;3567;52.444;13.556;2023-06-22T05:04:25;14.18;;;12.95;;
7051;SDS011;3567;52.444;13.556;2023-06-22T05:06:53;12.50;;;11.40;;
7051;SDS011;3567;52.444;13.556;2023-06-22T05:09:19;12.45;;;11.18;;
7051;SDS011;3567;52.444;13.556;2023-06-22T05:11:46;13.80;;;11.05;;
7051;SDS011;3567;52.444;13.556;2023-06-22T05:14:19;13.85;;;11.98;;
7051;SDS011;3567;52.444;13.556;2023-06-22T05:16:46;11.95;;;10.98;;
7051;SDS011;3567;52.444;13.556;2023-06-22T05:19:12;11.07;;;10.00;;
7051;SDS011;3567;52.444;13.556;2023-06-22T05:21:37;10.70;;;9.80;;
7051;SDS011;3567;52.444;13.556;2023-06-22T05:24:11;9.77;;;8.95;;
7051;SDS011;3567;52.444;13.556;2023-06-22T05:26:37;9.50;;;8.50;;
7051;SDS011;3567;52.444;13.556;2023-06-22T05:29:03;10.02;;;9.05;;
7051;SDS011;3567;52.444;13.556;2023-06-22T05:31:36;11.45;;;9.25;;
7051;SDS011;3567;52.444;13.556;2023-06-22T05:34:22;9.18;;;8.38;;
7051;SDS011;3567;52.444;13.556;2023-06-22T05:36:47;8.70;;;7.90;;
7051;SDS011;3567;52.444;13.556;2023-06-22T05:39:14;8.95;;;7.32;;
7051;SDS011;3567;52.444;13.556;2023-06-22T05:41:49;7.38;;;6.80;;
7051;SDS011;3567;52.444;13.556;2023-06-22T05:49:24;6.60;;;6.10;;
7051;SDS011;3567;52.444;13.556;2023-06-22T05:51:54;7.35;;;6.75;;
7051;SDS011;3567;52.444;13.556;2023-06-22T05:54:20;8.27;;;6.70;;
7051;SDS011;3567;52.444;13.556;2023-06-22T05:56:45;8.38;;;5.90;;
7051;SDS011;3567;52.444;13.556;2023-06-22T05:59:10;11.30;;;6.57;;
7051;SDS011;3567;52.444;13.556;2023-06-22T06:01:37;7.13;;;6.47;;
7051;SDS011;3567;52.444;13.556;2023-06-22T06:04:03;9.10;;;5.80;;
7051;SDS011;3567;52.444;13.556;2023-06-22T06:06:34;6.88;;;5.53;;
7051;SDS011;3567;52.444;13.556;2023-06-22T06:09:02;6.07;;;5.57;;
7051;SDS011;3567;52.444;13.556;2023-06-22T06:11:28;5.55;;;5.15;;
7051;SDS011;3567;52.444;13.556;2023-06-22T06:13:54;5.88;;;5.35;;
7051;SDS011;3567;52.444;13.556;2023-06-22T06:16:19;5.45;;;5.05;;
7051;SDS011;3567;52.444;13.556;2023-06-22T06:18:45;7.60;;;6.47;;
7051;SDS011;3567;52.444;13.556;2023-06-22T06:21:10;7.13;;;6.57;;
7051;SDS011;3567;52.444;13.556;2023-06-22T06:23:35;6.65;;;6.03;;
7051;SDS011;3567;52.444;13.556;2023-06-22T06:26:01;5.40;;;5.10;;
7051;SDS011;3567;52.444;13.556;2023-06-22T06:28:26;5.60;;;5.20;;
7051;SDS011;3567;52.444;13.556;2023-06-22T06:30:51;5.70;;;5.05;;
7051;SDS011;3567;52.444;13.556;2023-06-22T06:33:17;5.32;;;4.70;;
7051;SDS011;3567;52.444;13.556;2023-06-22T06:35:42;5.38;;;4.72;;
7051;SDS011;3567;52.444;13.556;2023-06-22T06:38:08;6.18;;;4.68;;
7051;SDS011;3567;52.444;13.556;2023-06-22T06:40:33;5.35;;;4.95;;
7051;SDS011;3567;52.444;13.556;2023-06-22T06:42:58;4.90;;;4.50;;
7051;SDS011;3567;52.444;13.556;2023-06-22T06:45:24;6.03;;;4.55;;
7051;SDS011;3567;52.444;13.556;2023-06-22T06:47:50;5.13;;;4.68;;
7051;SDS011;3567;52.444;13.556;2023-06-22T06:50:17;5.38;;;4.72;;
7051;SDS011;3567;52.444;13.556;2023-06-22T06:52:43;4.88;;;4.43;;
7051;SDS011;3567;52.444;13.556;2023-06-22T06:55:09;4.65;;;4.25;;
7051;SDS011;3567;52.444;13.556;2023-06-22T06:57:37;4.82;;;4.43;;
7051;SDS011;3567;52.444;13.556;2023-06-22T07:00:06;4.68;;;4.47;;
7051;SDS011;3567;52.444;13.556;2023-06-22T07:02:38;3.50;;;3.40;;
7051;SDS011;3567;52.444;13.556;2023-06-22T07:05:08;4.72;;;4.43;;
7051;SDS011;3567;52.444;13.556;2023-06-22T07:07:33;4.72;;;4.35;;
7051;SDS011;3567;52.444;13.556;2023-06-22T07:09:59;4.35;;;4.03;;
7051;SDS011;3567;52.444;13.556;2023-06-22T07:12:25;5.60;;;3.92;;
7051;SDS011;3567;52.444;13.556;2023-06-22T07:14:51;4.25;;;3.97;;
7051;SDS011;3567;52.444;13.556;2023-06-22T07:17:17;3.88;;;3.58;;
7051;SDS011;3567;52.444;13.556;2023-06-22T07:19:42;4.72;;;4.35;;
7051;SDS011;3567;52.444;13.556;2023-06-22T07:22:08;4.10;;;3.65;;
7051;SDS011;3567;52.444;13.556;2023-06-22T07:24:33;3.63;;;3.42;;
7051;SDS011;3567;52.444;13.556;2023-06-22T07:26:58;4.50;;;3.83;;
7051;SDS011;3567;52.444;13.556;2023-06-22T07:29:25;4.75;;;3.83;;
7051;SDS011;3567;52.444;13.556;2023-06-22T07:31:51;3.45;;;3.25;;
7051;SDS011;3567;52.444;13.556;2023-06-22T07:34:17;3.60;;;3.40;;
7051;SDS011;3567;52.444;13.556;2023-06-22T07:36:43;4.15;;;3.85;;
7051;SDS011;3567;52.444;13.556;2023-06-22T07:39:09;5.10;;;3.30;;
7051;SDS011;3567;52.444;13.556;2023-06-22T07:41:34;2.80;;;2.60;;
7051;SDS011;3567;52.444;13.556;2023-06-22T07:44:00;2.67;;;2.58;;
7051;SDS011;3567;52.444;13.556;2023-06-22T07:46:27;2.60;;;2.47;;
7051;SDS011;3567;52.444;13.556;2023-06-22T07:48:55;2.72;;;2.53;;
7051;SDS011;3567;52.444;13.556;2023-06-22T07:51:20;2.70;;;2.50;;
7051;SDS011;3567;52.444;13.556;2023-06-22T07:53:46;4.00;;;2.53;;
7051;SDS011;3567;52.444;13.556;2023-06-22T07:56:11;3.00;;;2.80;;
7051;SDS011;3567;52.444;13.556;2023-06-22T07:58:37;2.53;;;2.35;;
7051;SDS011;3567;52.444;13.556;2023-06-22T08:01:02;3.08;;;2.65;;
7051;SDS011;3567;52.444;13.556;2023-06-22T08:03:28;3.40;;;2.65;;
7051;SDS011;3567;52.444;13.556;2023-06-22T08:05:53;2.45;;;2.35;;
7051;SDS011;3567;52.444;13.556;2023-06-22T08:08:19;2.75;;;2.65;;
7051;SDS011;3567;52.444;13.556;2023-06-22T08:10:44;2.50;;;2.30;;
7051;SDS011;3567;52.444;13.556;2023-06-22T08:13:09;2.97;;;2.85;;
7051;SDS011;3567;52.444;13.556;2023-06-22T08:15:35;3.33;;;3.13;;
7051;SDS011;3567;52.444;13.556;2023-06-22T08:18:00;3.40;;;3.17;;
7051;SDS011;3567;52.444;13.556;2023-06-22T08:20:26;2.83;;;2.63;;
7051;SDS011;3567;52.444;13.556;2023-06-22T08:22:52;3.28;;;2.97;;
7051;SDS011;3567;52.444;13.556;2023-06-22T08:25:18;2.90;;;2.70;;
7051;SDS011;3567;52.444;13.556;2023-06-22T08:27:45;6.18;;;5.70;;
7051;SDS011;3567;52.444;13.556;2023-06-22T08:30:12;3.83;;;2.88;;
7051;SDS011;3567;52.444;13.556;2023-06-22T08:32:37;2.67;;;2.47;;
7051;SDS011;3567;52.444;13.556;2023-06-22T08:35:02;2.95;;;2.75;;
7051;SDS011;3567;52.444;13.556;2023-06-22T08:37:28;5.95;;;2.20;;
7051;SDS011;3567;52.444;13.556;2023-06-22T08:40:01;3.10;;;2.65;;
7051;SDS011;3567;52.444;13.556;2023-06-22T08:42:32;2.50;;;2.40;;
7051;SDS011;3567;52.444;13.556;2023-06-22T08:44:58;4.10;;;2.85;;
7051;SDS011;3567;52.444;13.556;2023-06-22T08:47:23;2.55;;;2.35;;
7051;SDS011;3567;52.444;13.556;2023-06-22T08:49:49;3.97;;;2.85;;
7051;SDS011;3567;52.444;13.556;2023-06-22T08:52:14;2.95;;;2.75;;
7051;SDS011;3567;52.444;13.556;2023-06-22T08:54:40;2.63;;;2.45;;
7051;SDS011;3567;52.444;13.556;2023-06-22T08:57:05;3.33;;;2.60;;
7051;SDS011;3567;52.444;13.556;2023-06-22T08:59:31;2.70;;;2.50;;
7051;SDS011;3567;52.444;13.556;2023-06-22T09:01:56;3.53;;;2.60;;
7051;SDS011;3567;52.444;13.556;2023-06-22T09:04:22;2.63;;;2.42;;
7051;SDS011;3567;52.444;13.556;2023-06-22T09:06:50;2.90;;;2.70;;
7051;SDS011;3567;52.444;13.556;2023-06-22T09:09:17;3.67;;;2.40;;
7051;SDS011;3567;52.444;13.556;2023-06-22T09:11:43;3.00;;;2.70;;
7051;SDS011;3567;52.444;13.556;2023-06-22T09:14:09;9.60;;;2.38;;
7051;SDS011;3567;52.444;13.556;2023-06-22T09:16:34;4.47;;;2.67;;
7051;SDS011;3567;52.444;13.556;2023-06-22T09:19:00;5.30;;;3.00;;
7051;SDS011;3567;52.444;13.556;2023-06-22T09:21:27;3.33;;;2.40;;
7051;SDS011;3567;52.444;13.556;2023-06-22T09:23:52;2.90;;;2.70;;
7051;SDS011;3567;52.444;13.556;2023-06-22T09:26:18;2.63;;;2.47;;
7051;SDS011;3567;52.444;13.556;2023-06-22T09:28:44;3.22;;;3.03;;
7051;SDS011;3567;52.444;13.556;2023-06-22T09:31:09;2.60;;;2.40;;
7051;SDS011;3567;52.444;13.556;2023-06-22T09:33:35;2.08;;;1.98;;
7051;SDS011;3567;52.444;13.556;2023-06-22T09:36:01;2.75;;;2.55;;
7051;SDS011;3567;52.444;13.556;2023-06-22T09:38:26;2.13;;;1.83;;
7051;SDS011;3567;52.444;13.556;2023-06-22T09:40:52;2.25;;;2.15;;
7051;SDS011;3567;52.444;13.556;2023-06-22T09:43:17;3.83;;;1.67;;
7051;SDS011;3567;52.444;13.556;2023-06-22T09:45:42;16.65;;;2.33;;
7051;SDS011;3567;52.444;13.556;2023-06-22T09:48:08;3.15;;;2.08;;
7051;SDS011;3567;52.444;13.556;2023-06-22T09:50:34;2.60;;;1.83;;
7051;SDS011;3567;52.444;13.556;2023-06-22T09:53:00;2.38;;;1.77;;
7051;SDS011;3567;52.444;13.556;2023-06-22T09:55:25;1.83;;;1.73;;
7051;SDS011;3567;52.444;13.556;2023-06-22T09:57:51;1.73;;;1.63;;
7051;SDS011;3567;52.444;13.556;2023-06-22T10:00:16;5.40;;;1.70;;
7051;SDS011;3567;52.444;13.556;2023-06-22T10:02:42;2.53;;;1.77;;
7051;SDS011;3567;52.444;13.556;2023-06-22T10:05:08;2.08;;;1.80;;
7051;SDS011;3567;52.444;13.556;2023-06-22T10:07:33;2.20;;;1.92;;
7051;SDS011;3567;52.444;13.556;2023-06-22T10:09:59;1.75;;;1.60;;
7051;SDS011;3567;52.444;13.556;2023-06-22T10:12:25;3.85;;;1.63;;
7051;SDS011;3567;52.444;13.556;2023-06-22T10:14:52;1.88;;;1.75;;
7051;SDS011;3567;52.444;13.556;2023-06-22T10:17:17;1.90;;;1.70;;
7051;SDS011;3567;52.444;13.556;2023-06-22T10:19:43;3.42;;;2.20;;
7051;SDS011;3567;52.444;13.556;2023-06-22T10:22:08;3.30;;;1.85;;
7051;SDS011;3567;52.444;13.556;2023-06-22T10:24:33;1.98;;;1.88;;
7051;SDS011;3567;52.444;13.556;2023-06-22T10:26:59;3.53;;;2.08;;
7051;SDS011;3567;52.444;13.556;2023-06-22T10:29:24;1.58;;;1.58;;
7051;SDS011;3567;52.444;13.556;2023-06-22T10:31:49;2.33;;;1.63;;
7051;SDS011;3567;52.444;13.556;2023-06-22T10:34:15;3.60;;;2.28;;
7051;SDS011;3567;52.444;13.556;2023-06-22T10:36:40;2.28;;;2.13;;
7051;SDS011;3567;52.444;13.556;2023-06-22T10:39:05;1.90;;;1.80;;
7051;SDS011;3567;52.444;13.556;2023-06-22T10:41:31;2.10;;;2.00;;
7051;SDS011;3567;52.444;13.556;2023-06-22T10:43:56;1.80;;;1.70;;
7051;SDS011;3567;52.444;13.556;2023-06-22T10:46:24;2.00;;;1.90;;
7051;SDS011;3567;52.444;13.556;2023-06-22T10:48:50;3.25;;;2.00;;
7051;SDS011;3567;52.444;13.556;2023-06-22T10:51:15;2.53;;;1.80;;
7051;SDS011;3567;52.444;13.556;2023-06-22T10:53:40;2.45;;;2.22;;
7051;SDS011;3567;52.444;13.556;2023-06-22T10:56:06;4.05;;;2.30;;
7051;SDS011;3567;52.444;13.556;2023-06-22T10:58:31;2.50;;;2.30;;
7051;SDS011;3567;52.444;13.556;2023-06-22T11:00:57;2.33;;;2.13;;
7051;SDS011;3567;52.444;13.556;2023-06-22T11:03:24;2.10;;;1.88;;
7051;SDS011;3567;52.444;13.556;2023-06-22T11:05:49;3.42;;;1.77;;
7051;SDS011;3567;52.444;13.556;2023-06-22T11:08:14;2.45;;;2.25;;
7051;SDS011;3567;52.444;13.556;2023-06-22T11:10:40;2.67;;;2.47;;
7051;SDS011;3567;52.444;13.556;2023-06-22T11:13:05;2.72;;;2.42;;
7051;SDS011;3567;52.444;13.556;2023-06-22T11:15:34;2.63;;;2.40;;
7051;SDS011;3567;52.444;13.556;2023-06-22T11:18:00;3.88;;;2.40;;
7051;SDS011;3567;52.444;13.556;2023-06-22T11:20:25;2.67;;;2.53;;
7051;SDS011;3567;52.444;13.556;2023-06-22T11:22:50;4.95;;;2.10;;
7051;SDS011;3567;52.444;13.556;2023-06-22T11:25:16;3.10;;;2.17;;
7051;SDS011;3567;52.444;13.556;2023-06-22T11:27:41;2.25;;;2.15;;
7051;SDS011;3567;52.444;13.556;2023-06-22T11:30:07;2.53;;;2.42;;
7051;SDS011;3567;52.444;13.556;2023-06-22T11:32:33;2.17;;;2.08;;
7051;SDS011;3567;52.444;13.556;2023-06-22T11:34:59;2.47;;;2.38;;
7051;SDS011;3567;52.444;13.556;2023-06-22T11:37:24;2.95;;;2.30;;
7051;SDS011;3567;52.444;13.556;2023-06-22T11:39:49;2.30;;;2.20;;
7051;SDS011;3567;52.444;13.556;2023-06-22T11:42:15;2.45;;;2.33;;
7051;SDS011;3567;52.444;13.556;2023-06-22T11:44:41;2.70;;;2.58;;
7051;SDS011;3567;52.444;13.556;2023-06-22T11:47:07;3.08;;;2.25;;
7051;SDS011;3567;52.444;13.556;2023-06-22T11:49:32;3.20;;;2.30;;
7051;SDS011;3567;52.444;13.556;2023-06-22T11:51:58;3.25;;;2.83;;
7051;SDS011;3567;52.444;13.556;2023-06-22T11:54:23;9.60;;;8.90;;
7051;SDS011;3567;52.444;13.556;2023-06-22T11:56:48;2.95;;;2.67;;
7051;SDS011;3567;52.444;13.556;2023-06-22T11:59:14;2.70;;;2.60;;
7051;SDS011;3567;52.444;13.556;2023-06-22T12:01:39;3.28;;;2.50;;
7051;SDS011;3567;52.444;13.556;2023-06-22T12:04:05;3.60;;;2.13;;
7051;SDS011;3567;52.444;13.556;2023-06-22T12:06:35;2.95;;;2.75;;
7051;SDS011;3567;52.444;13.556;2023-06-22T12:09:03;3.65;;;2.47;;
7051;SDS011;3567;52.444;13.556;2023-06-22T12:11:29;2.60;;;2.50;;
7051;SDS011;3567;52.444;13.556;2023-06-22T12:13:54;2.60;;;2.50;;
7051;SDS011;3567;52.444;13.556;2023-06-22T12:16:20;2.33;;;2.20;;
7051;SDS011;3567;52.444;13.556;2023-06-22T12:18:46;3.85;;;3.50;;
7051;SDS011;3567;52.444;13.556;2023-06-22T12:21:12;2.60;;;2.50;;
7051;SDS011;3567;52.444;13.556;2023-06-22T12:23:37;3.75;;;2.75;;
7051;SDS011;3567;52.444;13.556;2023-06-22T12:26:03;2.70;;;2.50;;
7051;SDS011;3567;52.444;13.556;2023-06-22T12:28:28;2.63;;;2.42;;
7051;SDS011;3567;52.444;13.556;2023-06-22T12:30:53;2.40;;;2.30;;
7051;SDS011;3567;52.444;13.556;2023-06-22T12:33:19;2.92;;;2.70;;
7051;SDS011;3567;52.444;13.556;2023-06-22T12:35:45;2.70;;;2.50;;
7051;SDS011;3567;52.444;13.556;2023-06-22T12:38:11;2.42;;;2.33;;
7051;SDS011;3567;52.444;13.556;2023-06-22T12:40:36;2.67;;;2.58;;
7051;SDS011;3567;52.444;13.556;2023-06-22T12:43:01;2.97;;;2.88;;
7051;SDS011;3567;52.444;13.556;2023-06-22T12:45:27;2.15;;;2.08;;
7051;SDS011;3567;52.444;13.556;2023-06-22T12:47:54;2.67;;;2.47;;
7051;SDS011;3567;52.444;13.556;2023-06-22T12:50:19;3.40;;;3.08;;
7051;SDS011;3567;52.444;13.556;2023-06-22T12:52:45;2.90;;;2.78;;
7051;SDS011;3567;52.444;13.556;2023-06-22T12:55:10;3.28;;;3.08;;
7051;SDS011;3567;52.444;13.556;2023-06-22T12:57:36;2.83;;;2.72;;
7051;SDS011;3567;52.444;13.556;2023-06-22T13:00:01;3.42;;;3.10;;
7051;SDS011;3567;52.444;13.556;2023-06-22T13:02:26;3.63;;;3.42;;
7051;SDS011;3567;52.444;13.556;2023-06-22T13:04:52;2.90;;;2.78;;
7051;SDS011;3567;52.444;13.556;2023-06-22T13:07:17;2.70;;;2.60;;
7051;SDS011;3567;52.444;13.556;2023-06-22T13:09:43;3.10;;;3.00;;
7051;SDS011;3567;52.444;13.556;2023-06-22T13:12:10;3.00;;;2.90;;
7051;SDS011;3567;52.444;13.556;2023-06-22T13:14:35;2.90;;;2.70;;
7051;SDS011;3567;52.444;13.556;2023-06-22T13:17:01;3.05;;;2.92;;
7051;SDS011;3567;52.444;13.556;2023-06-22T13:19:26;3.17;;;2.83;;
7051;SDS011;3567;52.444;13.556;2023-06-22T13:21:53;3.17;;;2.85;;
7051;SDS011;3567;52.444;13.556;2023-06-22T13:24:19;3.22;;;3.13;;
7051;SDS011;3567;52.444;13.556;2023-06-22T13:26:44;6.45;;;3.45;;
7051;SDS011;3567;52.444;13.556;2023-06-22T13:29:09;3.63;;;3.40;;
7051;SDS011;3567;52.444;13.556;2023-06-22T13:31:35;3.85;;;3.65;;
7051;SDS011;3567;52.444;13.556;2023-06-22T13:34:00;3.70;;;3.40;;
7051;SDS011;3567;52.444;13.556;2023-06-22T13:36:25;3.97;;;3.67;;
7051;SDS011;3567;52.444;13.556;2023-06-22T13:38:51;3.58;;;3.35;;
7051;SDS011;3567;52.444;13.556;2023-06-22T13:41:16;4.40;;;2.92;;
7051;SDS011;3567;52.444;13.556;2023-06-22T13:43:42;3.63;;;3.42;;
7051;SDS011;3567;52.444;13.556;2023-06-22T13:46:07;2.70;;;2.50;;
7051;SDS011;3567;52.444;13.556;2023-06-22T13:48:32;3.25;;;3.03;;
7051;SDS011;3567;52.444;13.556;2023-06-22T13:50:58;3.97;;;3.30;;
7051;SDS011;3567;52.444;13.556;2023-06-22T13:53:24;3.38;;;3.17;;
7051;SDS011;3567;52.444;13.556;2023-06-22T13:55:51;3.35;;;3.20;;
7051;SDS011;3567;52.444;13.556;2023-06-22T13:58:16;3.03;;;2.92;;
7051;SDS011;3567;52.444;13.556;2023-06-22T14:00:41;3.17;;;2.97;;
7051;SDS011;3567;52.444;13.556;2023-06-22T14:03:07;3.60;;;3.40;;
7051;SDS011;3567;52.444;13.556;2023-06-22T14:05:32;3.45;;;3.25;;
7051;SDS011;3567;52.444;13.556;2023-06-22T14:07:58;3.60;;;3.25;;
7051;SDS011;3567;52.444;13.556;2023-06-22T14:10:23;3.17;;;3.08;;
7051;SDS011;3567;52.444;13.556;2023-06-22T14:12:48;3.03;;;2.83;;
7051;SDS011;3567;52.444;13.556;2023-06-22T14:15:14;3.67;;;3.42;;
7051;SDS011;3567;52.444;13.556;2023-06-22T14:17:39;3.30;;;3.10;;
7051;SDS011;3567;52.444;13.556;2023-06-22T14:20:05;3.53;;;3.33;;
7051;SDS011;3567;52.444;13.556;2023-06-22T14:22:32;3.85;;;3.50;;
7051;SDS011;3567;52.444;13.556;2023-06-22T14:24:57;3.17;;;3.08;;
7051;SDS011;3567;52.444;13.556;2023-06-22T14:27:23;3.55;;;3.35;;
7051;SDS011;3567;52.444;13.556;2023-06-22T14:29:49;4.75;;;3.53;;
7051;SDS011;3567;52.444;13.556;2023-06-22T14:32:14;3.70;;;3.50;;
7051;SDS011;3567;52.444;13.556;2023-06-22T14:34:39;3.53;;;3.25;;
7051;SDS011;3567;52.444;13.556;2023-06-22T14:37:08;3.50;;;3.30;;
7051;SDS011;3567;52.444;13.556;2023-06-22T14:39:34;3.22;;;3.10;;
7051;SDS011;3567;52.444;13.556;2023-06-22T14:42:00;4.05;;;3.20;;
7051;SDS011;3567;52.444;13.556;2023-06-22T14:44:26;3.63;;;3.40;;
7051;SDS011;3567;52.444;13.556;2023-06-22T14:46:54;3.75;;;3.55;;
7051;SDS011;3567;52.444;13.556;2023-06-22T14:49:19;3.17;;;2.97;;
7051;SDS011;3567;52.444;13.556;2023-06-22T14:51:45;3.67;;;3.08;;
7051;SDS011;3567;52.444;13.556;2023-06-22T14:54:10;3.47;;;3.17;;
7051;SDS011;3567;52.444;13.556;2023-06-22T14:56:35;4.85;;;4.35;;